Time;durP1;ratioP1;P1;durP2;ratioP2;P2;SDS_P1;SDS_P2;PMS_P1;PMS_P2;Temp;Humidity;BMP_temperature;BMP_pressure;BME280_temperature;BME280_humidity;BME280_pressure;Samples;Min_cycle;Max_cycle;Signal;HPM_P1;HPM_P2
2021/06/12 00:01:00;;;;;;;5.25;4.82;;;19.10;99.90;;;;;;5091371;28;20038;-83
2021/06/12 00:03:25;;;;;;;5.13;4.72;;;19.10;99.90;;;;;;5092515;28;20111;-83
2021/06/12 00:05:51;;;;;;;5.35;4.80;;;19.10;99.90;;;;;;5092256;28;20039;-83
2021/06/12 00:08:17;;;;;;;5.22;4.82;;;19.10;99.90;;;;;;5092872;28;20017;-83
2021/06/12 00:10:44;;;;;;;4.97;4.57;;;19.00;99.90;;;;;;5074512;28;20025;-83
2021/06/12 00:13:10;;;;;;;5.13;4.63;;;19.00;99.90;;;;;;5054853;28;21540;-83
2021/06/12 00:15:36;;;;;;;5.50;4.85;;;18.90;99.90;;;;;;5070862;28;20059;-82
2021/06/12 00:18:03;;;;;;;4.90;4.25;;;19.00;99.90;;;;;;5090411;28;20078;-83
2021/06/12 00:20:32;;;;;;;5.15;4.72;;;18.90;99.90;;;;;;5091805;28;20085;-83
2021/06/12 00:22:58;;;;;;;4.85;4.40;;;19.00;99.90;;;;;;5076161;28;20470;-82
2021/06/12 00:25:27;;;;;;;5.05;4.57;;;19.00;99.90;;;;;;5074348;28;20024;-83
2021/06/12 00:27:55;;;;;;;4.63;4.22;;;18.90;99.90;;;;;;5093815;28;20773;-83
2021/06/12 00:30:22;;;;;;;4.85;4.45;;;19.00;99.90;;;;;;5075107;28;20434;-83
2021/06/12 00:32:48;;;;;;;5.07;4.45;;;19.00;99.90;;;;;;5093271;28;20182;-82
2021/06/12 00:35:14;;;;;;;5.20;4.40;;;18.90;99.90;;;;;;5091812;28;20118;-82
2021/06/12 00:37:40;;;;;;;4.40;4.00;;;18.90;99.90;;;;;;5076217;28;20017;-83
2021/06/12 00:40:13;;;;;;;4.50;4.15;;;18.90;99.90;;;;;;5073836;28;20459;-82
2021/06/12 00:42:40;;;;;;;4.80;4.07;;;18.90;99.90;;;;;;5075084;28;20497;-82
2021/06/12 00:45:18;;;;;;;4.20;3.88;;;18.90;99.90;;;;;;5074572;28;20020;-82
2021/06/12 00:47:48;;;;;;;3.80;3.50;;;18.80;99.90;;;;;;5093276;28;20076;-82
2021/06/12 00:50:16;;;;;;;3.72;3.50;;;18.90;99.90;;;;;;5092324;28;20054;-82
2021/06/12 00:52:42;;;;;;;4.03;3.30;;;18.80;99.90;;;;;;5074725;28;20050;-82
2021/06/12 00:55:11;;;;;;;3.90;3.60;;;18.80;99.90;;;;;;5074242;28;20042;-82
2021/06/12 00:57:37;;;;;;;4.05;3.45;;;18.80;99.90;;;;;;5075082;28;20235;-82
2021/06/12 01:00:08;;;;;;;4.47;4.13;;;18.90;99.90;;;;;;5092055;28;20101;-82
2021/06/12 01:02:36;;;;;;;4.10;3.80;;;18.80;99.90;;;;;;5092693;28;20453;-81
2021/06/12 01:05:02;;;;;;;4.43;4.03;;;18.80;99.90;;;;;;5073806;28;20036;-82
2021/06/12 01:07:28;;;;;;;5.20;3.65;;;18.80;99.90;;;;;;5074656;28;20020;-82
2021/06/12 01:09:54;;;;;;;3.95;3.65;;;18.80;99.90;;;;;;5073786;28;20032;-82
2021/06/12 01:12:28;;;;;;;3.80;3.60;;;18.70;99.90;;;;;;5074752;28;20027;-81
2021/06/12 01:14:59;;;;;;;4.18;3.78;;;18.70;99.90;;;;;;5092532;28;20639;-83
2021/06/12 01:17:52;;;;;;;4.07;3.78;;;18.70;99.90;;;;;;5090949;28;20020;-82
2021/06/12 01:20:43;;;;;;;4.07;3.75;;;18.70;99.90;;;;;;5084245;28;20119;-82
2021/06/12 01:23:11;;;;;;;4.22;3.83;;;18.70;99.90;;;;;;5072892;28;20189;-81
2021/06/12 01:25:37;;;;;;;3.97;3.53;;;18.80;99.90;;;;;;5073801;28;20066;-81
2021/06/12 01:28:35;;;;;;;4.90;3.88;;;18.80;99.90;;;;;;5090073;28;20109;-82
2021/06/12 01:31:02;;;;;;;4.13;3.60;;;18.80;99.90;;;;;;5049799;28;20039;-81
2021/06/12 01:33:28;;;;;;;4.10;3.70;;;18.80;99.90;;;;;;5086399;28;20048;-81
2021/06/12 01:36:00;;;;;;;3.85;3.42;;;18.70;99.90;;;;;;5090604;28;20066;-81
2021/06/12 01:38:30;;;;;;;4.50;4.10;;;18.60;99.90;;;;;;5071920;28;20031;-81
2021/06/12 01:41:06;;;;;;;3.75;3.55;;;18.60;99.90;;;;;;5074163;28;20040;-81
2021/06/12 01:43:34;;;;;;;3.95;3.67;;;18.60;99.90;;;;;;5072953;28;20061;-81
2021/06/12 01:46:01;;;;;;;6.60;4.00;;;18.70;99.90;;;;;;5092726;28;20035;-81
2021/06/12 01:48:28;;;;;;;3.65;3.33;;;18.70;99.90;;;;;;5088480;28;20066;-81
2021/06/12 01:50:57;;;;;;;3.50;3.28;;;18.70;99.90;;;;;;5091012;28;20516;-81
2021/06/12 01:53:30;;;;;;;3.90;3.55;;;18.70;99.90;;;;;;5089047;28;20081;-81
2021/06/12 01:56:03;;;;;;;4.38;4.03;;;18.70;99.90;;;;;;5090454;28;20651;-81
2021/06/12 01:58:30;;;;;;;3.53;3.25;;;18.70;99.90;;;;;;5070930;28;20032;-82
2021/06/12 02:01:00;;;;;;;4.93;3.50;;;18.70;99.90;;;;;;5073926;28;20028;-82
2021/06/12 02:03:27;;;;;;;3.80;3.50;;;18.70;99.90;;;;;;5072467;28;20055;-82
2021/06/12 02:05:53;;;;;;;3.67;3.38;;;18.80;99.90;;;;;;5091357;28;20086;-82
2021/06/12 02:08:20;;;;;;;3.50;3.30;;;18.80;99.90;;;;;;5089693;28;20059;-81
2021/06/12 02:10:48;;;;;;;3.80;3.50;;;18.90;99.90;;;;;;5090567;28;20420;-82
2021/06/12 02:13:16;;;;;;;3.63;3.33;;;18.90;99.90;;;;;;5090037;28;20362;-82
2021/06/12 02:15:45;;;;;;;3.67;3.40;;;19.00;99.90;;;;;;5080973;28;20020;-81
2021/06/12 02:18:12;;;;;;;4.03;3.75;;;19.00;99.90;;;;;;5068335;28;20031;-81
2021/06/12 02:20:39;;;;;;;3.53;3.22;;;18.90;99.90;;;;;;5053662;28;20544;-81
2021/06/12 02:23:07;;;;;;;3.53;3.20;;;18.80;99.90;;;;;;5051478;28;20086;-82
2021/06/12 02:25:34;;;;;;;3.92;3.63;;;18.80;99.90;;;;;;5054181;28;20507;-82
2021/06/12 02:28:04;;;;;;;3.75;3.08;;;18.80;99.90;;;;;;5081142;28;20026;-81
2021/06/12 02:30:32;;;;;;;3.40;3.20;;;18.80;99.90;;;;;;5091744;28;20133;-81
2021/06/12 02:33:03;;;;;;;3.47;3.28;;;18.80;99.90;;;;;;5090426;28;20040;-81
2021/06/12 02:35:29;;;;;;;3.60;3.30;;;18.70;99.90;;;;;;5091517;28;20611;-81
2021/06/12 02:37:56;;;;;;;4.55;3.33;;;18.70;99.90;;;;;;5089583;28;20059;-81
2021/06/12 02:40:22;;;;;;;3.55;3.22;;;18.70;99.90;;;;;;5073832;28;20024;-82
2021/06/12 02:42:47;;;;;;;3.42;3.22;;;18.80;99.90;;;;;;5085382;28;20096;-81
2021/06/12 02:45:13;;;;;;;4.25;3.85;;;18.80;99.90;;;;;;5053231;28;20016;-80
2021/06/12 02:47:56;;;;;;;3.50;3.30;;;18.80;99.90;;;;;;5069986;28;20048;-80
2021/06/12 02:50:26;;;;;;;8.95;4.40;;;18.70;99.90;;;;;;5071048;28;20429;-80
2021/06/12 02:52:54;;;;;;;3.88;3.58;;;18.70;99.90;;;;;;5069793;28;20104;-81
2021/06/12 02:55:21;;;;;;;3.85;3.28;;;18.70;99.90;;;;;;5052992;28;20032;-81
2021/06/12 02:57:49;;;;;;;3.58;3.33;;;18.70;99.90;;;;;;5069697;28;20032;-81
2021/06/12 03:00:18;;;;;;;3.15;2.95;;;18.60;99.90;;;;;;5075267;28;20028;-81
2021/06/12 03:02:46;;;;;;;3.28;2.97;;;18.70;99.90;;;;;;5072070;28;20059;-81
2021/06/12 03:05:36;;;;;;;5.75;3.65;;;18.60;99.90;;;;;;5089622;28;20020;-81
2021/06/12 03:08:03;;;;;;;4.43;3.30;;;18.60;99.90;;;;;;5089811;28;20556;-81
2021/06/12 03:10:32;;;;;;;3.72;3.42;;;18.60;99.90;;;;;;5071663;28;20427;-81
2021/06/12 03:13:01;;;;;;;5.65;3.25;;;18.70;99.90;;;;;;5090442;28;20381;-81
2021/06/12 03:15:28;;;;;;;3.97;3.67;;;18.70;99.90;;;;;;5088247;28;20020;-81
2021/06/12 03:17:55;;;;;;;3.88;3.58;;;18.60;99.90;;;;;;5079659;28;20031;-82
2021/06/12 03:20:22;;;;;;;3.50;3.20;;;18.60;99.90;;;;;;5088890;28;20043;-81
2021/06/12 03:22:51;;;;;;;5.50;3.30;;;18.60;99.90;;;;;;5088976;28;20119;-81
2021/06/12 03:25:20;;;;;;;5.25;3.67;;;18.50;99.90;;;;;;5088767;28;20016;-81
2021/06/12 03:27:47;;;;;;;4.15;3.72;;;18.50;99.90;;;;;;5071618;28;20370;-81
2021/06/12 03:30:14;;;;;;;3.50;3.30;;;18.50;99.90;;;;;;5089367;28;20043;-81
2021/06/12 03:32:40;;;;;;;3.47;3.20;;;18.50;99.90;;;;;;5070436;28;20386;-81
2021/06/12 03:35:08;;;;;;;3.60;3.40;;;18.50;99.90;;;;;;5070548;28;20093;-81
2021/06/12 03:37:35;;;;;;;4.32;3.47;;;18.50;99.90;;;;;;5089156;28;20481;-81
2021/06/12 03:40:03;;;;;;;3.80;3.50;;;18.50;99.90;;;;;;5086905;28;20060;-81
2021/06/12 03:42:29;;;;;;;3.55;3.25;;;18.50;99.90;;;;;;5089303;28;20024;-81
2021/06/12 03:44:56;;;;;;;3.30;3.10;;;18.50;99.90;;;;;;5090874;28;20024;-81
2021/06/12 03:47:23;;;;;;;7.43;3.35;;;18.50;99.90;;;;;;5092300;28;20028;-81
2021/06/12 03:49:50;;;;;;;4.25;3.20;;;18.50;99.90;;;;;;5086215;28;20017;-82
2021/06/12 03:52:19;;;;;;;4.80;2.97;;;18.50;99.90;;;;;;5072272;28;20451;-82
2021/06/12 03:54:45;;;;;;;4.00;3.70;;;18.40;99.90;;;;;;5063777;28;20036;-81
2021/06/12 03:57:11;;;;;;;3.80;3.50;;;18.50;99.90;;;;;;5073658;28;20032;-81
2021/06/12 03:59:36;;;;;;;3.90;3.60;;;18.40;99.90;;;;;;5072779;28;20025;-81
2021/06/12 04:02:02;;;;;;;3.17;2.97;;;18.40;99.90;;;;;;5091929;28;20044;-81
2021/06/12 04:04:28;;;;;;;3.58;3.28;;;18.40;99.90;;;;;;5072429;28;20024;-81
2021/06/12 04:06:54;;;;;;;3.40;3.20;;;18.40;99.90;;;;;;5092298;28;20553;-80
2021/06/12 04:09:20;;;;;;;7.63;3.30;;;18.30;99.90;;;;;;5090928;28;20099;-81
2021/06/12 04:11:45;;;;;;;3.80;3.50;;;18.30;99.90;;;;;;5092401;28;20106;-80
2021/06/12 04:14:11;;;;;;;3.63;3.42;;;18.30;99.90;;;;;;5072821;28;20069;-81
2021/06/12 04:16:38;;;;;;;3.90;3.30;;;18.40;99.90;;;;;;5074215;28;20556;-81
2021/06/12 04:19:04;;;;;;;3.80;3.50;;;18.40;99.90;;;;;;5072965;28;20032;-81
2021/06/12 04:21:30;;;;;;;4.30;3.40;;;18.40;99.90;;;;;;5092518;28;20050;-81
2021/06/12 04:23:55;;;;;;;3.42;3.22;;;18.40;99.90;;;;;;5072433;28;20020;-81
2021/06/12 04:26:21;;;;;;;6.68;3.30;;;18.50;99.90;;;;;;5092117;28;20666;-81
2021/06/12 04:28:47;;;;;;;2.97;2.75;;;18.50;99.90;;;;;;5072753;28;20024;-81
2021/06/12 04:31:13;;;;;;;3.25;3.05;;;18.50;99.90;;;;;;5092176;28;20107;-81
2021/06/12 04:33:38;;;;;;;3.55;3.22;;;18.60;99.90;;;;;;5072419;28;20048;-81
2021/06/12 04:36:04;;;;;;;4.28;3.92;;;18.70;99.90;;;;;;5092287;28;20020;-81
2021/06/12 04:38:30;;;;;;;4.05;3.72;;;18.70;99.90;;;;;;5090306;28;20165;-81
2021/06/12 04:40:56;;;;;;;4.65;3.50;;;18.70;99.90;;;;;;5092121;28;20115;-81
2021/06/12 04:43:22;;;;;;;5.63;3.95;;;18.70;99.90;;;;;;5090738;28;20016;-81
2021/06/12 04:45:47;;;;;;;8.10;3.15;;;18.70;99.90;;;;;;5091112;28;20113;-81
2021/06/12 04:48:13;;;;;;;3.10;2.90;;;18.80;99.90;;;;;;5090498;28;20097;-81
2021/06/12 04:50:40;;;;;;;3.63;3.40;;;18.80;99.90;;;;;;5092132;28;20029;-81
2021/06/12 04:53:08;;;;;;;3.78;3.47;;;18.80;99.90;;;;;;5090963;28;20034;-81
2021/06/12 04:55:35;;;;;;;3.72;3.20;;;18.80;99.90;;;;;;5090882;28;20055;-81
2021/06/12 04:58:02;;;;;;;2.95;2.75;;;18.80;99.90;;;;;;5090848;28;20081;-81
2021/06/12 05:00:28;;;;;;;3.67;3.38;;;18.80;99.90;;;;;;5092172;28;20104;-81
2021/06/12 05:02:54;;;;;;;3.72;3.47;;;18.80;99.90;;;;;;5090345;28;20407;-80
2021/06/12 05:05:20;;;;;;;4.85;3.88;;;18.90;99.90;;;;;;5092145;28;20025;-80
2021/06/12 05:07:45;;;;;;;3.85;3.50;;;19.00;99.90;;;;;;5093435;28;20026;-80
2021/06/12 05:10:11;;;;;;;3.92;3.33;;;19.00;99.90;;;;;;5095876;28;20046;-80
2021/06/12 05:12:38;;;;;;;5.63;3.40;;;19.00;99.90;;;;;;5094121;28;20465;-81
2021/06/12 05:15:08;;;;;;;3.88;3.55;;;19.00;99.90;;;;;;5095587;28;20024;-81
2021/06/12 05:17:35;;;;;;;5.00;3.30;;;19.00;99.90;;;;;;5093507;28;20039;-80
2021/06/12 05:20:01;;;;;;;3.70;3.50;;;19.10;99.90;;;;;;5094969;28;20036;-81
2021/06/12 05:22:27;;;;;;;3.97;3.28;;;19.10;99.90;;;;;;5093887;28;20027;-81
2021/06/12 05:24:54;;;;;;;3.78;3.47;;;19.00;99.90;;;;;;5089296;28;20100;-80
2021/06/12 05:27:20;;;;;;;4.32;3.92;;;19.00;99.90;;;;;;5055514;28;20025;-81
2021/06/12 05:29:46;;;;;;;4.43;3.40;;;19.10;99.90;;;;;;5075195;28;20031;-80
2021/06/12 05:32:15;;;;;;;4.13;3.75;;;19.20;99.90;;;;;;5073213;28;20029;-80
2021/06/12 05:34:41;;;;;;;5.30;3.63;;;19.20;99.90;;;;;;5075069;28;20029;-80
2021/06/12 05:37:08;;;;;;;6.32;4.03;;;19.30;99.90;;;;;;5079800;28;20019;-80
2021/06/12 05:39:33;;;;;;;3.42;3.22;;;19.40;99.90;;;;;;5095290;28;20491;-81
2021/06/12 05:41:59;;;;;;;4.15;3.72;;;19.40;99.90;;;;;;5093218;28;20048;-80
2021/06/12 05:44:25;;;;;;;3.97;3.60;;;19.50;99.90;;;;;;5095192;28;20103;-80
2021/06/12 05:46:51;;;;;;;3.97;3.67;;;19.50;99.90;;;;;;5093212;28;20024;-80
2021/06/12 05:49:18;;;;;;;4.63;4.28;;;19.60;99.90;;;;;;5076849;28;20055;-81
2021/06/12 05:51:43;;;;;;;9.15;4.40;;;19.60;99.90;;;;;;5093131;28;20366;-81
2021/06/12 05:54:09;;;;;;;4.13;3.83;;;19.70;99.90;;;;;;5077141;28;20089;-80
2021/06/12 05:56:35;;;;;;;4.90;4.35;;;19.80;99.90;;;;;;5092958;28;20024;-81
2021/06/12 05:59:01;;;;;;;3.65;3.35;;;19.80;99.90;;;;;;5076848;28;20028;-80
2021/06/12 06:01:26;;;;;;;3.80;3.50;;;19.90;99.90;;;;;;5092865;28;20055;-80
2021/06/12 06:03:52;;;;;;;3.90;3.70;;;20.00;99.90;;;;;;5094827;28;20402;-80
2021/06/12 06:06:18;;;;;;;5.03;4.00;;;20.10;99.90;;;;;;5092488;28;20028;-80
2021/06/12 06:08:43;;;;;;;4.45;4.07;;;20.10;99.90;;;;;;5094797;28;20028;-80
2021/06/12 06:11:09;;;;;;;7.53;3.70;;;20.20;99.90;;;;;;5091491;28;20024;-80
2021/06/12 06:13:43;;;;;;;9.20;3.45;;;20.30;99.90;;;;;;5075121;28;20032;-80
2021/06/12 06:16:09;;;;;;;4.30;3.90;;;20.30;99.90;;;;;;5089238;28;20028;-81
2021/06/12 06:18:36;;;;;;;5.45;4.35;;;20.40;99.90;;;;;;5093110;28;20028;-80
2021/06/12 06:21:03;;;;;;;4.82;4.35;;;20.50;99.90;;;;;;5092438;28;20028;-80
2021/06/12 06:23:28;;;;;;;5.70;5.13;;;20.60;99.90;;;;;;5094360;28;20065;-80
2021/06/12 06:25:54;;;;;;;6.57;5.97;;;20.70;99.90;;;;;;5088909;28;20095;-80
2021/06/12 06:28:20;;;;;;;6.65;5.40;;;20.80;99.90;;;;;;5074139;28;20025;-80
2021/06/12 06:30:46;;;;;;;7.55;6.57;;;20.80;99.90;;;;;;5054168;28;20040;-80
2021/06/12 06:33:12;;;;;;;9.48;5.97;;;20.90;99.90;;;;;;5091172;28;20040;-80
2021/06/12 06:35:38;;;;;;;6.32;5.82;;;20.90;99.90;;;;;;5092015;28;20035;-80
2021/06/12 06:38:04;;;;;;;6.80;6.05;;;21.00;99.90;;;;;;5094276;28;20077;-80
2021/06/12 06:40:30;;;;;;;10.10;6.70;;;21.00;99.90;;;;;;5092219;28;20106;-80
2021/06/12 06:42:55;;;;;;;7.97;6.53;;;21.10;99.90;;;;;;5094163;28;20095;-80
2021/06/12 06:45:22;;;;;;;6.55;5.95;;;21.20;99.90;;;;;;5091654;28;20386;-80
2021/06/12 06:47:48;;;;;;;9.93;6.03;;;21.20;99.90;;;;;;5083985;28;20020;-80
2021/06/12 06:50:18;;;;;;;8.93;6.75;;;21.30;99.90;;;;;;5073770;28;20527;-80
2021/06/12 06:52:46;;;;;;;7.60;6.90;;;21.40;99.90;;;;;;5073708;28;20020;-80
2021/06/12 06:55:12;;;;;;;11.38;6.65;;;21.40;99.90;;;;;;5073668;28;20031;-80
2021/06/12 06:57:38;;;;;;;6.25;5.65;;;21.50;99.90;;;;;;5055793;28;20436;-80
2021/06/12 07:00:06;;;;;;;5.97;5.40;;;21.50;99.90;;;;;;5073453;28;20028;-80
2021/06/12 07:02:32;;;;;;;8.65;6.10;;;21.60;99.90;;;;;;5073563;28;20086;-76
2021/06/12 07:04:58;;;;;;;6.40;5.88;;;21.60;99.90;;;;;;5086683;28;20024;-76
2021/06/12 07:07:24;;;;;;;8.07;5.97;;;21.60;99.90;;;;;;5091744;28;20020;-76
2021/06/12 07:09:50;;;;;;;7.03;5.60;;;21.60;99.90;;;;;;5092894;28;20492;-77
2021/06/12 07:12:15;;;;;;;6.63;6.05;;;21.60;99.90;;;;;;5092592;28;20367;-76
2021/06/12 07:14:43;;;;;;;6.68;5.88;;;21.60;99.90;;;;;;5092728;28;20024;-77
2021/06/12 07:17:09;;;;;;;9.07;6.93;;;21.60;99.90;;;;;;5091658;28;20490;-78
2021/06/12 07:19:35;;;;;;;7.32;6.63;;;21.60;99.90;;;;;;5092892;28;20046;-78
2021/06/12 07:22:01;;;;;;;7.53;6.30;;;21.60;99.90;;;;;;5073924;28;20055;-77
2021/06/12 07:24:27;;;;;;;7.45;6.47;;;21.60;99.90;;;;;;5092295;28;20095;-77
2021/06/12 07:26:52;;;;;;;8.00;7.20;;;21.60;99.90;;;;;;5092452;28;20019;-77
2021/06/12 07:29:18;;;;;;;10.73;6.88;;;21.60;99.90;;;;;;5092378;28;20063;-77
2021/06/12 07:31:44;;;;;;;11.93;8.80;;;21.60;99.90;;;;;;5093051;28;20020;-78
2021/06/12 07:34:10;;;;;;;8.68;7.72;;;21.60;99.90;;;;;;5092996;28;20031;-77
2021/06/12 07:36:37;;;;;;;8.25;6.88;;;21.70;99.90;;;;;;5093130;28;20019;-77
2021/06/12 07:39:05;;;;;;;8.10;7.07;;;21.70;99.90;;;;;;5093402;28;20529;-77
2021/06/12 07:41:31;;;;;;;8.00;7.20;;;21.80;99.90;;;;;;5093109;28;20484;-77
2021/06/12 07:43:58;;;;;;;9.52;7.95;;;21.80;99.90;;;;;;5088071;28;20020;-77
2021/06/12 07:46:24;;;;;;;9.10;7.68;;;21.90;99.90;;;;;;5072892;28;20024;-78
2021/06/12 07:48:50;;;;;;;8.73;7.35;;;21.90;99.90;;;;;;5072849;28;20362;-77
2021/06/12 07:51:16;;;;;;;11.20;7.85;;;21.90;99.90;;;;;;5072867;28;20028;-77
2021/06/12 07:53:42;;;;;;;8.80;7.50;;;21.90;99.90;;;;;;5085869;28;20107;-77
2021/06/12 07:56:07;;;;;;;8.57;7.50;;;22.00;99.90;;;;;;5092626;28;20597;-77
2021/06/12 07:58:33;;;;;;;10.00;8.02;;;22.00;99.90;;;;;;5092932;28;20063;-77
2021/06/12 08:00:59;;;;;;;9.48;8.07;;;22.00;99.90;;;;;;5092866;28;20482;-77
2021/06/12 08:03:25;;;;;;;9.38;8.40;;;22.10;99.90;;;;;;5092634;28;20020;-77
2021/06/12 08:05:51;;;;;;;11.70;8.38;;;22.10;99.90;;;;;;5092769;28;20462;-77
2021/06/12 08:08:16;;;;;;;13.63;8.07;;;22.30;99.90;;;;;;5092742;28;20386;-77
2021/06/12 08:10:42;;;;;;;10.77;8.45;;;22.30;99.90;;;;;;5074533;28;20029;-77
2021/06/12 08:13:08;;;;;;;8.63;6.80;;;22.40;99.90;;;;;;5074558;28;20035;-77
2021/06/12 08:15:34;;;;;;;10.63;8.55;;;22.40;99.90;;;;;;5092965;28;20433;-77
2021/06/12 08:18:00;;;;;;;10.90;8.20;;;22.50;99.90;;;;;;5074597;28;20028;-77
2021/06/12 08:20:28;;;;;;;9.18;7.15;;;22.50;99.90;;;;;;5092364;28;20028;-77
2021/06/12 08:22:54;;;;;;;9.82;7.15;;;22.50;99.90;;;;;;5074455;28;20028;-77
2021/06/12 08:25:20;;;;;;;9.25;7.47;;;22.50;99.90;;;;;;5092662;28;20078;-77
2021/06/12 08:27:46;;;;;;;9.60;7.80;;;22.60;99.90;;;;;;5092667;28;20105;-77
2021/06/12 08:30:13;;;;;;;9.80;8.13;;;22.60;99.90;;;;;;5092703;28;20020;-77
2021/06/12 08:32:39;;;;;;;11.13;8.40;;;22.70;99.90;;;;;;5092504;28;20055;-77
2021/06/12 08:35:06;;;;;;;8.70;7.55;;;22.70;99.90;;;;;;5092474;28;20477;-77
2021/06/12 08:37:35;;;;;;;8.80;7.90;;;22.70;99.90;;;;;;5092712;28;20016;-77
2021/06/12 08:40:02;;;;;;;8.40;6.80;;;22.80;99.90;;;;;;5094126;28;20137;-77
2021/06/12 08:42:27;;;;;;;7.93;6.60;;;22.80;99.80;;;;;;5096463;28;20024;-77
2021/06/12 08:44:56;;;;;;;7.03;6.30;;;22.80;99.90;;;;;;5096517;28;20073;-77
2021/06/12 08:47:22;;;;;;;7.60;6.55;;;22.80;99.90;;;;;;5087915;28;20051;-77
2021/06/12 08:49:48;;;;;;;6.20;5.60;;;22.90;99.60;;;;;;5076105;28;20032;-77
2021/06/12 08:52:14;;;;;;;6.68;5.93;;;23.00;99.70;;;;;;5076064;28;20151;-77
2021/06/12 08:54:41;;;;;;;6.55;5.95;;;23.00;99.00;;;;;;5075960;28;20036;-77
2021/06/12 08:57:10;;;;;;;6.97;6.25;;;23.10;99.70;;;;;;5076057;28;20016;-77
2021/06/12 08:59:37;;;;;;;5.85;5.45;;;23.10;98.00;;;;;;5057933;28;20021;-77
2021/06/12 09:02:07;;;;;;;7.05;6.35;;;23.20;98.10;;;;;;5075734;28;20024;-77
2021/06/12 09:04:42;;;;;;;6.05;5.45;;;23.30;97.30;;;;;;5075703;28;20028;-78
2021/06/12 09:07:34;;;;;;;9.30;6.10;;;23.40;97.10;;;;;;5057739;28;20031;-77
2021/06/12 09:10:00;;;;;;;7.20;6.38;;;23.40;97.80;;;;;;5075400;28;20021;-77
2021/06/12 09:12:49;;;;;;;6.85;5.35;;;23.50;98.10;;;;;;5090746;28;20027;-76
2021/06/12 09:15:19;;;;;;;9.18;5.57;;;23.50;98.40;;;;;;5094313;28;20103;-76
2021/06/12 09:17:50;;;;;;;6.80;6.13;;;23.60;96.80;;;;;;5094666;28;20481;-76
2021/06/12 09:20:27;;;;;;;5.88;5.38;;;23.50;97.00;;;;;;5094505;28;20024;-75
2021/06/12 09:23:13;;;;;;;6.72;5.40;;;23.60;97.50;;;;;;5095050;28;20012;-75
2021/06/12 09:25:44;;;;;;;8.57;6.13;;;23.60;97.60;;;;;;5095028;28;20024;-76
2021/06/12 09:28:11;;;;;;;6.25;5.65;;;23.70;97.50;;;;;;5077341;28;20031;-76
2021/06/12 09:30:36;;;;;;;5.72;5.25;;;23.70;97.20;;;;;;5094804;28;20078;-76
2021/06/12 09:33:03;;;;;;;7.32;6.55;;;23.80;97.40;;;;;;5095267;28;20044;-75
2021/06/12 09:35:31;;;;;;;9.30;6.65;;;23.80;97.60;;;;;;5094957;28;20435;-76
2021/06/12 09:37:59;;;;;;;7.13;5.55;;;23.80;98.40;;;;;;5095315;28;20550;-76
2021/06/12 09:40:30;;;;;;;6.88;6.20;;;23.80;96.80;;;;;;5094835;28;20118;-76
2021/06/12 09:43:01;;;;;;;6.65;5.97;;;23.90;98.00;;;;;;5076521;28;20024;-76
2021/06/12 09:45:29;;;;;;;6.00;5.40;;;23.90;98.80;;;;;;5076594;28;20059;-76
2021/06/12 09:48:16;;;;;;;5.90;5.40;;;24.00;98.50;;;;;;5094552;28;20539;-76
2021/06/12 09:50:43;;;;;;;5.53;5.13;;;24.20;99.00;;;;;;5094596;28;20392;-76
2021/06/12 09:53:38;;;;;;;5.10;4.70;;;24.20;98.30;;;;;;5094389;28;20557;-76
2021/06/12 09:56:11;;;;;;;4.82;4.53;;;24.30;98.30;;;;;;5094225;28;20024;-76
2021/06/12 09:58:37;;;;;;;4.60;3.65;;;24.40;97.60;;;;;;5075997;28;20024;-76
2021/06/12 10:01:11;;;;;;;4.40;4.00;;;24.40;97.80;;;;;;5094356;28;20020;-76
2021/06/12 10:03:37;;;;;;;3.65;3.40;;;24.50;95.70;;;;;;5076208;28;20027;-76
2021/06/12 10:06:21;;;;;;;3.80;3.50;;;24.70;93.20;;;;;;5076823;28;20431;-76
2021/06/12 10:08:49;;;;;;;4.20;3.88;;;24.70;92.20;;;;;;5094732;28;20024;-76
2021/06/12 10:11:16;;;;;;;3.67;3.47;;;24.90;92.40;;;;;;5094567;28;20032;-75
2021/06/12 10:13:49;;;;;;;3.72;3.42;;;24.90;92.10;;;;;;5093666;28;20016;-76
2021/06/12 10:16:16;;;;;;;4.70;4.30;;;24.90;92.30;;;;;;5094194;28;20477;-76
2021/06/12 10:18:43;;;;;;;4.70;4.35;;;25.00;93.30;;;;;;5075968;28;20035;-76
2021/06/12 10:21:10;;;;;;;4.30;3.55;;;25.00;93.60;;;;;;5075945;28;20485;-76
2021/06/12 10:23:39;;;;;;;4.18;3.88;;;25.10;92.30;;;;;;5094305;28;20028;-76
2021/06/12 10:26:09;;;;;;;5.45;4.10;;;25.20;91.10;;;;;;5094215;28;20069;-75
2021/06/12 10:28:35;;;;;;;3.97;3.53;;;25.30;92.50;;;;;;5094396;28;20049;-76
2021/06/12 10:31:09;;;;;;;4.53;3.72;;;25.40;92.60;;;;;;5094310;28;20050;-76
2021/06/12 10:33:39;;;;;;;5.10;4.03;;;25.40;91.70;;;;;;5093934;28;20083;-76
2021/06/12 10:36:12;;;;;;;3.90;3.60;;;25.50;91.60;;;;;;5094148;28;20050;-76
2021/06/12 10:38:38;;;;;;;3.72;3.42;;;25.50;91.70;;;;;;5076781;28;20025;-76
2021/06/12 10:41:37;;;;;;;3.92;3.72;;;25.60;91.00;;;;;;5077492;28;20024;-76
2021/06/12 10:44:04;;;;;;;5.50;3.33;;;25.70;90.20;;;;;;5052314;28;20033;-76
2021/06/12 10:46:32;;;;;;;4.35;4.05;;;25.80;90.50;;;;;;5072734;28;20031;-75
2021/06/12 10:49:00;;;;;;;3.58;3.38;;;25.80;87.50;;;;;;5055349;28;20024;-76
2021/06/12 10:51:25;;;;;;;3.90;3.45;;;25.90;88.80;;;;;;5072887;28;20028;-76
2021/06/12 10:54:09;;;;;;;3.80;3.50;;;25.90;90.50;;;;;;5072986;28;20024;-76
2021/06/12 10:56:38;;;;;;;4.07;3.78;;;25.90;88.80;;;;;;5055394;28;20032;-76
2021/06/12 10:59:04;;;;;;;7.18;3.40;;;26.10;88.80;;;;;;5073426;28;20028;-76
2021/06/12 11:01:30;;;;;;;4.10;3.80;;;26.10;86.20;;;;;;5072568;28;20024;-76
2021/06/12 11:09:13;;;;;;;5.20;3.58;;;26.30;84.30;;;;;;5073222;28;20475;-76
2021/06/12 11:11:47;;;;;;;3.67;3.47;;;26.30;86.10;;;;;;5076192;28;20600;-75
2021/06/12 11:14:22;;;;;;;4.90;3.95;;;26.30;85.60;;;;;;5088726;28;20024;-76
2021/06/12 11:17:10;;;;;;;4.53;3.35;;;26.40;84.20;;;;;;5092952;28;20077;-76
2021/06/12 11:19:49;;;;;;;4.20;3.58;;;26.50;85.10;;;;;;5091979;28;20047;-76
2021/06/12 11:22:36;;;;;;;3.38;3.17;;;26.70;84.20;;;;;;5093103;28;20513;-75
2021/06/12 11:25:08;;;;;;;3.92;3.72;;;26.80;82.00;;;;;;5092386;28;20031;-76
2021/06/12 11:27:39;;;;;;;3.85;3.55;;;26.80;80.00;;;;;;5093283;28;20016;-76
2021/06/12 11:30:18;;;;;;;4.32;3.92;;;26.80;79.80;;;;;;5074545;28;20626;-75
2021/06/12 11:32:50;;;;;;;4.80;4.47;;;26.70;82.00;;;;;;5073978;28;20059;-76
2021/06/12 11:35:38;;;;;;;4.65;4.00;;;26.60;84.10;;;;;;5093075;28;20073;-76
2021/06/12 11:38:09;;;;;;;4.57;4.20;;;26.60;83.20;;;;;;5092962;28;20023;-76
2021/06/12 11:40:36;;;;;;;6.40;5.05;;;26.70;82.80;;;;;;5092626;28;20056;-76
2021/06/12 11:43:02;;;;;;;8.20;6.20;;;26.70;83.60;;;;;;5079651;28;20518;-76
2021/06/12 11:45:35;;;;;;;13.00;8.43;;;26.80;84.10;;;;;;5092721;28;20016;-76
2021/06/12 11:48:19;;;;;;;8.65;7.15;;;26.90;85.30;;;;;;5092959;28;20415;-75
2021/06/12 11:50:45;;;;;;;9.32;6.70;;;27.10;85.60;;;;;;5090974;28;20385;-75
2021/06/12 11:53:15;;;;;;;11.73;9.45;;;27.20;85.00;;;;;;5092771;28;20084;-76
2021/06/12 11:55:41;;;;;;;12.40;9.73;;;27.30;85.40;;;;;;5092747;28;20548;-75
2021/06/12 11:58:07;;;;;;;13.63;10.45;;;27.30;83.80;;;;;;5092632;28;20032;-75
2021/06/12 12:00:38;;;;;;;14.88;10.43;;;27.30;83.10;;;;;;5091788;28;20039;-75
2021/06/12 12:03:09;;;;;;;13.25;9.73;;;27.50;83.40;;;;;;5092716;28;20089;-75
2021/06/12 12:05:58;;;;;;;13.98;9.35;;;27.50;84.50;;;;;;5092477;28;20485;-75
2021/06/12 12:08:25;;;;;;;11.32;8.32;;;27.60;83.40;;;;;;5092397;28;20024;-75
2021/06/12 12:10:52;;;;;;;11.65;9.48;;;27.70;81.90;;;;;;5092448;28;20032;-75
2021/06/12 12:13:23;;;;;;;11.85;8.77;;;27.70;79.70;;;;;;5092591;28;20381;-76
2021/06/12 12:15:49;;;;;;;;;;;27.80;83.70;;;;;;5076419;28;20043;-76
2021/06/12 12:18:15;;;;;;;13.82;9.63;;;28.00;83.20;;;;;;5096731;28;19910;-76
2021/06/12 12:20:42;;;;;;;13.68;9.88;;;28.10;83.60;;;;;;5078247;28;20024;-75
2021/06/12 12:23:22;;;;;;;14.00;10.55;;;28.10;82.00;;;;;;5096606;28;20021;-75
2021/06/12 12:25:51;;;;;;;12.37;9.40;;;28.10;80.00;;;;;;5078215;28;20017;-76
2021/06/12 12:28:21;;;;;;;13.63;10.13;;;28.00;78.70;;;;;;5096603;28;20466;-75
2021/06/12 12:30:49;;;;;;;13.32;10.05;;;27.90;79.10;;;;;;5078135;28;20028;-76
2021/06/12 12:33:19;;;;;;;13.82;8.32;;;27.90;80.30;;;;;;5082303;28;20049;-76
2021/06/12 12:35:47;;;;;;;13.30;8.93;;;27.90;81.30;;;;;;5076395;28;20089;-75
2021/06/12 12:38:19;;;;;;;13.85;8.75;;;28.00;79.20;;;;;;5089473;28;20024;-75
2021/06/12 12:40:46;;;;;;;12.15;9.88;;;28.10;79.10;;;;;;5096078;28;20471;-75
2021/06/12 12:43:13;;;;;;;9.20;7.32;;;28.20;78.10;;;;;;5096251;28;20535;-75
2021/06/12 12:45:41;;;;;;;8.05;7.25;;;28.30;78.80;;;;;;5096285;28;20548;-75
2021/06/12 12:48:08;;;;;;;10.25;8.73;;;28.50;76.20;;;;;;5095984;28;20016;-75
2021/06/12 12:50:36;;;;;;;8.02;6.80;;;28.60;75.70;;;;;;5095951;28;20504;-75
2021/06/12 12:53:10;;;;;;;9.52;7.13;;;28.60;73.40;;;;;;5096409;28;20032;-76
2021/06/12 12:55:37;;;;;;;6.57;5.97;;;28.60;72.50;;;;;;5095759;28;20052;-75
2021/06/12 12:58:05;;;;;;;6.07;5.45;;;28.80;71.60;;;;;;5096547;28;20039;-75